createdAt,value
2018-07-08T00:01:51.231Z,2.10
2018-07-08T00:03:55.124Z,2.07
2018-07-08T00:05:58.951Z,2.03
2018-07-08T00:08:03.066Z,2.17
2018-07-08T00:10:06.935Z,2.50
2018-07-08T00:12:10.965Z,2.20
2018-07-08T00:14:14.790Z,2.80
2018-07-08T00:16:18.713Z,1.87
2018-07-08T00:18:23.734Z,2.20
2018-07-08T00:20:27.731Z,2.17
2018-07-08T00:22:31.501Z,2.27
2018-07-08T00:24:36.561Z,2.70
2018-07-08T00:26:40.565Z,2.20
2018-07-08T00:28:44.365Z,2.10
2018-07-08T00:30:48.352Z,1.80
2018-07-08T00:32:52.198Z,2.23
2018-07-08T00:34:56.162Z,2.83
2018-07-08T00:36:59.541Z,2.93
2018-07-08T00:39:03.995Z,2.30
2018-07-08T00:41:07.806Z,2.30
2018-07-08T00:43:12.937Z,2.40
2018-07-08T00:45:16.780Z,2.50
2018-07-08T00:47:20.728Z,2.47
2018-07-08T00:49:24.575Z,2.40
2018-07-08T00:51:28.449Z,2.20
2018-07-08T00:53:32.270Z,2.53
2018-07-08T00:55:36.187Z,2.60
2018-07-08T00:57:40.060Z,2.50
2018-07-08T00:59:43.979Z,2.37
2018-07-08T01:01:47.881Z,2.70
2018-07-08T01:03:51.842Z,2.80
2018-07-08T01:05:55.653Z,2.37
2018-07-08T01:08:00.300Z,2.27
2018-07-08T01:10:04.251Z,2.62
2018-07-08T01:12:08.262Z,2.50
2018-07-08T01:14:12.047Z,2.87
2018-07-08T01:16:15.999Z,2.83
2018-07-08T01:18:19.829Z,2.57
2018-07-08T01:20:23.885Z,3.03
2018-07-08T01:22:27.671Z,2.87
2018-07-08T01:24:31.672Z,2.80
2018-07-08T01:26:36.445Z,3.33
2018-07-08T01:28:41.399Z,2.80
2018-07-08T01:30:45.314Z,2.77
2018-07-08T01:32:49.212Z,3.07
2018-07-08T01:34:52.990Z,2.63
2018-07-08T01:36:56.932Z,2.77
2018-07-08T01:39:00.713Z,2.97
2018-07-08T01:41:04.715Z,3.47
2018-07-08T01:43:08.532Z,2.87
2018-07-08T01:45:12.441Z,3.17
2018-07-08T01:47:16.273Z,3.10
2018-07-08T01:49:19.808Z,3.00
2018-07-08T01:51:23.609Z,3.00
2018-07-08T01:53:27.795Z,3.53
2018-07-08T01:55:31.833Z,3.20
2018-07-08T01:57:35.914Z,3.10
2018-07-08T01:59:39.785Z,3.40
2018-07-08T02:01:43.765Z,3.37
2018-07-08T02:03:47.582Z,3.63
2018-07-08T02:05:51.592Z,3.47
2018-07-08T02:07:55.452Z,2.87
2018-07-08T02:09:59.373Z,3.10
2018-07-08T02:12:03.254Z,3.73
2018-07-08T02:14:07.188Z,3.10
2018-07-08T02:16:11.068Z,3.20
2018-07-08T02:18:15.064Z,3.10
2018-07-08T02:20:18.871Z,3.30
2018-07-08T02:22:22.892Z,3.07
2018-07-08T02:24:26.867Z,3.40
2018-07-08T02:26:30.830Z,4.80
2018-07-08T02:28:34.723Z,3.17
2018-07-08T02:30:38.817Z,2.83
2018-07-08T02:32:42.746Z,3.00
2018-07-08T02:34:46.657Z,3.00
2018-07-08T02:36:50.566Z,3.00
2018-07-08T02:38:54.538Z,3.70
2018-07-08T02:40:58.337Z,4.00
2018-07-08T02:43:02.300Z,3.60
2018-07-08T02:45:06.437Z,3.27
2018-07-08T02:47:10.751Z,3.40
2018-07-08T02:49:14.624Z,3.93
2018-07-08T02:51:18.552Z,3.40
2018-07-08T02:53:22.469Z,2.97
2018-07-08T02:55:26.388Z,3.00
2018-07-08T02:57:30.164Z,3.07
2018-07-08T02:59:34.223Z,3.27
2018-07-08T03:01:38.030Z,3.83
2018-07-08T03:03:41.936Z,3.33
2018-07-08T03:05:45.729Z,3.47
2018-07-08T03:07:49.665Z,3.27
2018-07-08T03:09:53.424Z,3.17
2018-07-08T03:11:57.357Z,3.73
2018-07-08T03:14:01.273Z,3.53
2018-07-08T03:16:05.728Z,3.60
2018-07-08T03:18:09.518Z,3.20
2018-07-08T03:20:13.450Z,3.50
2018-07-08T03:22:17.221Z,3.60
2018-07-08T03:24:21.335Z,3.50
2018-07-08T03:26:25.176Z,4.77
2018-07-08T03:28:29.124Z,3.67
2018-07-08T03:30:33.020Z,3.93
2018-07-08T03:32:37.049Z,3.70
2018-07-08T03:34:40.871Z,3.37
2018-07-08T03:36:44.756Z,4.03
2018-07-08T03:38:49.664Z,4.13
2018-07-08T03:40:53.594Z,4.10
2018-07-08T03:42:57.396Z,3.73
2018-07-08T03:45:01.304Z,4.60
2018-07-08T03:47:05.196Z,4.20
2018-07-08T03:49:09.093Z,4.60
2018-07-08T03:51:12.917Z,3.90
2018-07-08T03:53:16.832Z,3.90
2018-07-08T03:55:20.660Z,5.10
2018-07-08T03:57:24.595Z,3.70
2018-07-08T03:59:28.437Z,4.23
2018-07-08T04:01:32.342Z,4.70
2018-07-08T04:03:36.133Z,4.00
2018-07-08T04:05:40.033Z,3.97
2018-07-08T04:07:43.833Z,3.60
2018-07-08T04:09:47.736Z,4.27
2018-07-08T04:11:51.554Z,4.20
2018-07-08T04:13:55.477Z,4.40
2018-07-08T04:15:59.338Z,4.07
2018-07-08T04:18:07.572Z,4.07
2018-07-08T04:20:11.484Z,3.70
2018-07-08T04:22:15.291Z,4.53
2018-07-08T04:24:19.186Z,4.30
2018-07-08T04:26:23.056Z,3.50
2018-07-08T04:28:27.087Z,4.33
2018-07-08T04:30:31.610Z,4.50
2018-07-08T04:32:35.507Z,4.43
2018-07-08T04:34:39.272Z,4.37
2018-07-08T04:36:43.177Z,4.07
2018-07-08T04:38:47.064Z,4.20
2018-07-08T04:40:50.995Z,4.00
2018-07-08T04:42:54.909Z,4.03
2018-07-08T04:44:58.828Z,3.50
2018-07-08T04:47:02.619Z,4.43
2018-07-08T04:49:06.571Z,4.07
2018-07-08T04:51:10.438Z,4.00
2018-07-08T04:53:14.372Z,4.10
2018-07-08T04:55:18.167Z,4.40
2018-07-08T04:57:22.094Z,4.70
2018-07-08T04:59:25.884Z,4.97
2018-07-08T05:01:29.804Z,3.90
2018-07-08T05:03:33.668Z,4.07
2018-07-08T05:05:37.576Z,4.10
2018-07-08T05:07:41.348Z,4.30
2018-07-08T05:09:45.371Z,3.90
2018-07-08T05:11:49.180Z,4.03
2018-07-08T05:13:53.129Z,4.07
2018-07-08T05:15:57.172Z,4.27
2018-07-08T05:18:01.249Z,4.77
2018-07-08T05:20:05.525Z,4.03
2018-07-08T05:22:09.750Z,4.37
2018-07-08T05:24:13.747Z,3.67
2018-07-08T05:26:17.983Z,4.20
2018-07-08T05:28:22.405Z,4.17
2018-07-08T05:30:26.578Z,4.40
2018-07-08T05:32:30.640Z,4.13
2018-07-08T05:34:34.538Z,3.97
2018-07-08T05:36:38.333Z,4.07
2018-07-08T05:38:42.464Z,3.80
2018-07-08T05:40:46.288Z,4.10
2018-07-08T05:42:50.268Z,4.70
2018-07-08T05:44:54.109Z,4.50
2018-07-08T05:46:57.999Z,4.70
2018-07-08T05:49:01.834Z,4.20
2018-07-08T05:51:05.785Z,4.43
2018-07-08T05:53:09.569Z,3.53
2018-07-08T05:55:13.533Z,3.80
2018-07-08T05:57:17.463Z,4.07
2018-07-08T05:59:21.411Z,4.50
2018-07-08T06:01:25.228Z,4.10
2018-07-08T06:03:29.190Z,3.93
2018-07-08T06:05:33.005Z,4.63
2018-07-08T06:07:37.042Z,4.37
2018-07-08T06:09:40.867Z,3.70
2018-07-08T06:11:44.776Z,4.20
2018-07-08T06:13:48.716Z,3.20
2018-07-08T06:15:52.842Z,3.67
2018-07-08T06:17:56.605Z,3.63
2018-07-08T06:20:00.492Z,4.00
2018-07-08T06:22:04.369Z,3.93
2018-07-08T06:24:08.337Z,3.90
2018-07-08T06:26:12.182Z,3.47
2018-07-08T06:28:16.194Z,3.40
2018-07-08T06:30:20.065Z,4.53
2018-07-08T06:32:24.032Z,3.93
2018-07-08T06:34:27.852Z,3.90
2018-07-08T06:36:31.882Z,4.00
2018-07-08T06:38:35.709Z,3.57
2018-07-08T06:40:39.630Z,3.40
2018-07-08T06:42:43.436Z,3.90
2018-07-08T06:44:47.358Z,3.30
2018-07-08T06:46:51.263Z,3.60
2018-07-08T06:48:55.173Z,3.40
2018-07-08T06:50:58.981Z,3.63
2018-07-08T06:53:03.071Z,3.00
2018-07-08T06:55:06.895Z,3.50
2018-07-08T06:57:10.808Z,3.80
2018-07-08T06:59:14.710Z,3.90
2018-07-08T07:01:18.628Z,3.27
2018-07-08T07:03:22.486Z,3.40
2018-07-08T07:05:26.493Z,3.53
2018-07-08T07:07:30.326Z,2.73
2018-07-08T07:09:34.236Z,3.40
2018-07-08T07:11:38.538Z,3.33
2018-07-08T07:13:42.456Z,3.60
2018-07-08T07:15:46.254Z,4.10
2018-07-08T07:17:50.160Z,3.03
2018-07-08T07:19:54.167Z,3.30
2018-07-08T07:21:58.166Z,3.00
2018-07-08T07:24:01.975Z,2.30
2018-07-08T07:26:06.033Z,2.37
2018-07-08T07:28:09.901Z,3.00
2018-07-08T07:30:13.765Z,2.50
2018-07-08T07:32:17.565Z,2.67
2018-07-08T07:34:21.477Z,3.30
2018-07-08T07:36:25.359Z,2.80
2018-07-08T07:38:29.252Z,2.90
2018-07-08T07:40:33.141Z,2.50
2018-07-08T07:42:37.030Z,2.20
2018-07-08T07:44:40.797Z,2.80
2018-07-08T07:46:46.057Z,2.87
2018-07-08T07:48:49.973Z,2.60
2018-07-08T07:50:53.791Z,2.47
2018-07-08T07:52:57.696Z,2.23
2018-07-08T07:55:01.577Z,2.30
2018-07-08T07:57:05.683Z,2.40
2018-07-08T07:59:09.584Z,2.20
2018-07-08T08:01:13.544Z,2.20
2018-07-08T08:03:17.531Z,2.00
2018-07-08T08:05:21.421Z,2.10
2018-07-08T08:07:25.261Z,2.10
2018-07-08T08:09:29.189Z,1.80
2018-07-08T08:11:32.979Z,1.90
2018-07-08T08:13:37.775Z,1.70
2018-07-08T08:15:41.670Z,2.15
2018-07-08T08:17:45.577Z,1.80
2018-07-08T08:19:49.387Z,1.80
2018-07-08T08:21:53.264Z,1.90
2018-07-08T08:23:58.403Z,2.10
2018-07-08T08:26:02.361Z,1.67
2018-07-08T08:28:06.125Z,1.90
2018-07-08T08:30:10.129Z,1.50
2018-07-08T08:32:13.984Z,1.50
2018-07-08T08:35:05.188Z,1.80
2018-07-08T08:37:09.119Z,1.60
2018-07-08T08:39:12.991Z,1.60
2018-07-08T08:41:17.001Z,1.53
2018-07-08T08:43:20.798Z,2.10
2018-07-08T08:45:26.008Z,1.60
2018-07-08T08:47:30.511Z,1.93
2018-07-08T08:49:34.303Z,1.32
2018-07-08T08:51:38.237Z,1.50
2018-07-08T08:53:42.013Z,1.80
2018-07-08T08:55:45.976Z,2.30
2018-07-08T08:57:49.760Z,1.97
2018-07-08T08:59:53.940Z,1.87
2018-07-08T09:01:57.789Z,2.33
2018-07-08T09:04:01.668Z,1.80
2018-07-08T09:06:05.611Z,1.53
2018-07-08T09:08:09.546Z,1.90
2018-07-08T09:10:13.363Z,1.83
2018-07-08T09:12:17.501Z,1.97
2018-07-08T09:14:21.885Z,1.90
2018-07-08T09:16:25.839Z,1.80
2018-07-08T09:18:29.619Z,1.60
2018-07-08T09:20:33.801Z,1.70
2018-07-08T09:22:37.703Z,1.50
2018-07-08T09:24:41.624Z,1.60
2018-07-08T09:26:45.491Z,1.70
2018-07-08T09:28:49.385Z,1.83
2018-07-08T09:30:53.270Z,2.20
2018-07-08T09:32:57.165Z,1.63
2018-07-08T09:35:01.069Z,1.53
2018-07-08T09:37:05.042Z,1.80
2018-07-08T09:39:13.652Z,1.53
2018-07-08T09:41:17.488Z,1.60
2018-07-08T09:43:21.667Z,1.87
2018-07-08T09:45:25.786Z,2.30
2018-07-08T09:47:29.614Z,1.90
2018-07-08T09:49:33.531Z,1.53
2018-07-08T09:51:37.335Z,1.70
2018-07-08T09:53:41.271Z,1.80
2018-07-08T09:55:45.085Z,1.80
2018-07-08T09:57:48.989Z,2.23
2018-07-08T09:59:52.810Z,1.53
2018-07-08T10:01:56.729Z,1.37
2018-07-08T10:04:01.682Z,1.70
2018-07-08T10:06:06.067Z,1.90
2018-07-08T10:08:11.158Z,1.80
2018-07-08T10:10:15.214Z,1.37
2018-07-08T10:12:19.284Z,1.60
2018-07-08T10:14:24.460Z,1.80
2018-07-08T10:16:28.704Z,1.83
2018-07-08T10:18:32.547Z,1.87
2018-07-08T10:20:36.478Z,2.30
2018-07-08T10:22:40.392Z,1.70
2018-07-08T10:24:44.295Z,2.37
2018-07-08T10:26:59.601Z,2.00
2018-07-08T10:29:03.653Z,2.10
2018-07-08T10:31:12.599Z,1.80
2018-07-08T10:33:16.504Z,1.57
2018-07-08T10:36:24.950Z,2.40
2018-07-08T10:38:28.967Z,1.70
2018-07-08T10:40:33.564Z,2.10
2018-07-08T10:42:37.469Z,2.17
2018-07-08T10:44:41.311Z,2.40
2018-07-08T10:46:45.238Z,2.40
2018-07-08T10:48:49.100Z,1.60
2018-07-08T10:50:53.142Z,2.00
2018-07-08T10:52:56.966Z,1.63
2018-07-08T10:55:00.956Z,1.80
2018-07-08T10:57:04.366Z,1.80
2018-07-08T10:59:08.316Z,2.03
2018-07-08T11:01:12.134Z,1.90
2018-07-08T11:03:16.052Z,3.93
2018-07-08T11:05:19.878Z,2.50
2018-07-08T11:07:23.831Z,1.80
2018-07-08T11:09:27.710Z,1.73
2018-07-08T11:11:31.681Z,1.70
2018-07-08T11:13:35.513Z,1.70
2018-07-08T11:15:39.403Z,1.70
2018-07-08T11:17:43.391Z,1.90
2018-07-08T11:19:47.327Z,1.97
2018-07-08T11:21:51.294Z,2.57
2018-07-08T11:23:55.270Z,1.70
2018-07-08T11:25:59.056Z,1.63
2018-07-08T11:28:02.995Z,2.03
2018-07-08T11:30:07.638Z,2.00
2018-07-08T11:32:11.613Z,1.33
2018-07-08T11:34:15.519Z,1.80
2018-07-08T11:36:19.386Z,1.53
2018-07-08T11:38:23.263Z,1.70
2018-07-08T11:40:27.142Z,1.83
2018-07-08T11:42:30.944Z,1.60
2018-07-08T11:44:34.839Z,1.53
2018-07-08T11:46:38.660Z,1.70
2018-07-08T11:48:42.649Z,1.57
2018-07-08T11:50:46.450Z,1.63
2018-07-08T11:52:50.352Z,1.77
2018-07-08T11:54:54.231Z,1.93
2018-07-08T11:56:58.240Z,1.70
2018-07-08T11:59:02.058Z,1.70
2018-07-08T12:01:05.928Z,1.77
2018-07-08T12:03:09.783Z,2.23
2018-07-08T12:05:13.692Z,1.70
2018-07-08T12:07:17.513Z,2.67
2018-07-08T12:09:21.414Z,3.57
2018-07-08T12:11:25.230Z,1.80
2018-07-08T12:13:29.133Z,1.70
2018-07-08T12:15:32.907Z,1.90
2018-07-08T12:17:36.885Z,1.77
2018-07-08T12:19:40.668Z,1.97
2018-07-08T12:21:44.570Z,1.70
2018-07-08T12:23:48.546Z,2.63
2018-07-08T12:25:52.456Z,2.40
2018-07-08T12:27:56.351Z,1.90
2018-07-08T12:30:00.286Z,2.10
2018-07-08T12:32:04.105Z,2.57
2018-07-08T12:34:07.964Z,2.47
2018-07-08T12:36:11.769Z,1.83
2018-07-08T12:38:15.724Z,1.97
2018-07-08T12:40:19.500Z,2.00
2018-07-08T12:42:23.488Z,1.70
2018-07-08T12:44:27.358Z,2.13
2018-07-08T12:46:31.348Z,2.10
2018-07-08T12:48:35.120Z,1.70
2018-07-08T12:50:39.014Z,2.00
2018-07-08T12:52:42.805Z,2.10
2018-07-08T12:54:46.372Z,2.00
2018-07-08T12:56:50.216Z,1.80
2018-07-08T12:58:54.507Z,1.70
2018-07-08T13:00:58.392Z,2.13
2018-07-08T13:03:02.280Z,1.90
2018-07-08T13:05:06.532Z,1.73
2018-07-08T13:07:10.407Z,1.80
2018-07-08T13:09:14.206Z,1.80
2018-07-08T13:11:18.194Z,1.60
2018-07-08T13:13:22.058Z,2.20
2018-07-08T13:15:25.979Z,1.50
2018-07-08T13:17:29.745Z,1.50
2018-07-08T13:19:33.627Z,1.53
2018-07-08T13:21:37.524Z,1.70
2018-07-08T13:23:41.472Z,1.90
2018-07-08T13:25:45.283Z,1.60
2018-07-08T13:27:49.203Z,1.80
2018-07-08T13:29:53.013Z,1.80
2018-07-08T13:31:56.911Z,1.67
2018-07-08T13:34:00.754Z,1.83
2018-07-08T13:36:04.800Z,1.60
2018-07-08T13:38:08.585Z,1.77
2018-07-08T13:40:12.623Z,2.17
2018-07-08T13:42:16.419Z,1.80
2018-07-08T13:44:20.375Z,1.83
2018-07-08T13:46:24.323Z,1.93
2018-07-08T13:48:28.254Z,1.80
2018-07-08T13:50:32.102Z,1.87
2018-07-08T13:52:35.997Z,1.97
2018-07-08T13:54:39.837Z,1.90
2018-07-08T13:56:43.741Z,2.07
2018-07-08T13:58:47.587Z,1.50
2018-07-08T14:00:51.553Z,2.00
2018-07-08T14:02:55.339Z,1.97
2018-07-08T14:04:59.264Z,1.80
2018-07-08T14:07:03.033Z,1.53
2018-07-08T14:09:07.373Z,1.63
2018-07-08T14:11:11.203Z,1.97
2018-07-08T14:13:15.160Z,1.60
2018-07-08T14:15:19.028Z,1.43
2018-07-08T14:17:22.909Z,1.70
2018-07-08T14:19:26.715Z,2.13
2018-07-08T14:21:30.682Z,2.00
2018-07-08T14:23:34.503Z,1.90
2018-07-08T14:25:38.484Z,1.70
2018-07-08T14:27:42.284Z,1.90
2018-07-08T14:29:46.189Z,1.60
2018-07-08T14:31:49.943Z,1.83
2018-07-08T14:33:53.849Z,1.73
2018-07-08T14:35:57.626Z,1.70
2018-07-08T14:38:01.606Z,1.50
2018-07-08T14:40:05.420Z,1.90
2018-07-08T14:42:09.356Z,1.80
2018-07-08T14:44:13.159Z,1.90
2018-07-08T14:46:17.162Z,1.90
2018-07-08T14:48:20.912Z,1.93
2018-07-08T14:50:24.849Z,1.50
2018-07-08T14:52:28.681Z,1.60
2018-07-08T14:54:32.604Z,1.50
2018-07-08T14:56:36.383Z,1.67
2018-07-08T14:58:40.261Z,1.47
2018-07-08T15:00:44.140Z,2.07
2018-07-08T15:02:48.021Z,1.80
2018-07-08T15:04:51.872Z,1.77
2018-07-08T15:06:55.881Z,2.27
2018-07-08T15:09:05.113Z,1.77
2018-07-08T15:11:09.205Z,1.50
2018-07-08T15:13:12.978Z,1.83
2018-07-08T15:15:17.000Z,1.67
2018-07-08T15:17:21.152Z,1.67
2018-07-08T15:19:25.157Z,1.60
2018-07-08T15:21:29.043Z,2.20
2018-07-08T15:23:33.055Z,1.50
2018-07-08T15:25:36.948Z,1.50
2018-07-08T15:27:41.286Z,1.47
2018-07-08T15:29:45.145Z,1.80
2018-07-08T15:31:49.235Z,1.50
2018-07-08T15:33:53.191Z,1.80
2018-07-08T15:35:57.181Z,2.50
2018-07-08T15:38:01.253Z,1.90
2018-07-08T15:40:05.195Z,1.40
2018-07-08T15:42:09.145Z,1.40
2018-07-08T15:44:13.214Z,1.40
2018-07-08T15:46:17.190Z,1.67
2018-07-08T15:48:21.147Z,1.80
2018-07-08T15:50:25.151Z,1.50
2018-07-08T15:52:29.468Z,1.50
2018-07-08T15:54:33.331Z,2.07
2018-07-08T15:56:37.857Z,1.87
2018-07-08T15:58:41.816Z,1.40
2018-07-08T16:00:46.253Z,1.43
2018-07-08T16:02:50.224Z,1.70
2018-07-08T16:04:54.290Z,1.63
2018-07-08T16:06:57.711Z,1.60
2018-07-08T16:09:01.714Z,1.70
2018-07-08T16:11:05.657Z,1.60
2018-07-08T16:13:09.621Z,1.57
2018-07-08T16:15:14.573Z,1.70
2018-07-08T16:17:18.635Z,1.60
2018-07-08T16:19:22.457Z,1.50
2018-07-08T16:21:26.520Z,1.90
2018-07-08T16:23:30.537Z,1.50
2018-07-08T16:25:34.693Z,1.63
2018-07-08T16:27:38.546Z,2.03
2018-07-08T16:29:43.186Z,1.40
2018-07-08T16:31:47.279Z,1.32
2018-07-08T16:33:51.322Z,1.50
2018-07-08T16:35:56.366Z,1.77
2018-07-08T16:38:00.291Z,1.73
2018-07-08T16:40:04.315Z,1.33
2018-07-08T16:42:08.540Z,1.70
2018-07-08T16:44:12.383Z,1.60
2018-07-08T16:46:18.148Z,1.53
2018-07-08T16:48:22.221Z,1.47
2018-07-08T16:50:26.046Z,1.60
2018-07-08T16:52:30.022Z,2.03
2018-07-08T16:54:33.827Z,1.70
2018-07-08T16:56:37.814Z,1.50
2018-07-08T16:58:41.559Z,1.67
2018-07-08T17:00:45.466Z,1.80
2018-07-08T17:02:49.408Z,1.60
2018-07-08T17:04:53.348Z,2.17
2018-07-08T17:06:57.457Z,1.80
2018-07-08T17:09:01.725Z,2.00
2018-07-08T17:11:05.614Z,2.40
2018-07-08T17:13:09.612Z,2.00
2018-07-08T17:15:13.411Z,1.57
2018-07-08T17:17:17.342Z,2.20
2018-07-08T17:19:21.466Z,1.60
2018-07-08T17:21:25.515Z,2.17
2018-07-08T17:23:29.321Z,1.70
2018-07-08T17:25:33.258Z,1.80
2018-07-08T17:27:37.289Z,1.53
2018-07-08T17:29:41.245Z,1.70
2018-07-08T17:31:45.094Z,2.30
2018-07-08T17:33:49.101Z,1.90
2018-07-08T17:35:52.937Z,1.40
2018-07-08T17:37:56.864Z,1.50
2018-07-08T17:40:00.765Z,1.43
2018-07-08T17:42:04.818Z,1.70
2018-07-08T17:44:08.792Z,1.90
2018-07-08T17:46:12.443Z,1.50
2018-07-08T17:48:16.725Z,1.75
2018-07-08T17:50:20.702Z,1.17
2018-07-08T17:52:24.642Z,1.53
2018-07-08T17:54:28.786Z,1.70
2018-07-08T17:56:32.860Z,1.70
2018-07-08T17:58:36.854Z,1.60
2018-07-08T18:00:40.693Z,1.37
2018-07-08T18:02:45.107Z,1.33
2018-07-08T18:04:49.094Z,2.60
2018-07-08T18:06:53.463Z,1.40
2018-07-08T18:08:57.475Z,1.33
2018-07-08T18:11:01.473Z,1.37
2018-07-08T18:13:05.417Z,1.30
2018-07-08T18:15:09.484Z,1.40
2018-07-08T18:17:13.877Z,1.70
2018-07-08T18:19:18.972Z,1.77
2018-07-08T18:21:22.961Z,1.63
2018-07-08T18:23:27.020Z,1.67
2018-07-08T18:25:31.043Z,1.50
2018-07-08T18:27:34.912Z,1.80
2018-07-08T18:29:38.902Z,1.47
2018-07-08T18:31:42.834Z,1.20
2018-07-08T18:33:46.760Z,1.40
2018-07-08T18:35:50.691Z,1.53
2018-07-08T18:37:54.716Z,1.20
2018-07-08T18:39:58.932Z,1.47
2018-07-08T18:42:03.027Z,1.50
2018-07-08T18:44:06.875Z,1.60
2018-07-08T18:46:10.887Z,1.77
2018-07-08T18:48:14.856Z,1.80
2018-07-08T18:50:18.975Z,1.40
2018-07-08T18:52:22.955Z,1.30
2018-07-08T18:54:27.052Z,1.40
2018-07-08T18:56:30.976Z,1.43
2018-07-08T18:58:35.450Z,1.67
2018-07-08T19:00:39.374Z,1.80
2018-07-08T19:02:43.391Z,1.90
2018-07-08T19:04:47.404Z,2.43
2018-07-08T19:06:51.432Z,1.50
2018-07-08T19:08:55.456Z,1.63
2018-07-08T19:11:00.346Z,2.40
2018-07-08T19:13:04.349Z,2.20
2018-07-08T19:15:08.431Z,1.87
2018-07-08T19:17:12.763Z,2.13
2018-07-08T19:19:16.981Z,1.90
2018-07-08T19:21:21.071Z,1.60
2018-07-08T19:23:25.269Z,2.57
2018-07-08T19:25:29.299Z,5.27
2018-07-08T19:27:34.191Z,2.10
2018-07-08T19:29:38.124Z,1.90
2018-07-08T19:31:42.352Z,1.53
2018-07-08T19:33:47.666Z,1.47
2018-07-08T19:35:51.792Z,2.03
2018-07-08T19:37:55.936Z,2.20
2018-07-08T19:40:00.900Z,2.10
2018-07-08T19:42:06.239Z,1.60
2018-07-08T19:44:11.769Z,2.70
2018-07-08T19:46:15.862Z,1.67
2018-07-08T19:48:20.029Z,1.90
2018-07-08T19:50:24.061Z,2.10
2018-07-08T19:52:28.147Z,2.50
2018-07-08T19:54:32.128Z,2.00
2018-07-08T19:56:36.320Z,1.87
2018-07-08T19:58:40.246Z,2.07
2018-07-08T20:00:44.437Z,2.20
2018-07-08T20:02:48.614Z,2.40
2018-07-08T20:04:52.671Z,2.70
2018-07-08T20:06:57.034Z,2.20
2018-07-08T20:09:00.855Z,2.20
2018-07-08T20:11:04.851Z,1.90
2018-07-08T20:13:08.710Z,2.10
2018-07-08T20:15:12.764Z,1.90
2018-07-08T20:17:16.629Z,2.03
2018-07-08T20:19:20.533Z,2.00
2018-07-08T20:21:24.202Z,2.23
2018-07-08T20:23:27.870Z,2.10
2018-07-08T20:25:31.851Z,2.10
2018-07-08T20:27:35.914Z,2.20
2018-07-08T20:29:39.752Z,2.00
2018-07-08T20:31:43.652Z,2.23
2018-07-08T20:33:47.474Z,2.77
2018-07-08T20:35:51.742Z,2.57
2018-07-08T20:37:55.639Z,2.20
2018-07-08T20:39:59.549Z,2.70
2018-07-08T20:42:03.370Z,2.47
2018-07-08T20:44:07.303Z,2.40
2018-07-08T20:46:11.107Z,2.57
2018-07-08T20:48:15.159Z,2.13
2018-07-08T20:50:19.104Z,2.23
2018-07-08T20:52:23.109Z,2.50
2018-07-08T20:54:27.200Z,2.50
2018-07-08T20:56:31.205Z,2.40
2018-07-08T20:58:35.058Z,2.40
2018-07-08T21:00:38.973Z,2.33
2018-07-08T21:02:42.868Z,2.43
2018-07-08T21:04:46.860Z,2.37
2018-07-08T21:06:50.981Z,2.03
2018-07-08T21:09:06.319Z,2.30
2018-07-08T21:11:10.423Z,2.00
2018-07-08T21:13:14.448Z,2.40
2018-07-08T21:15:18.554Z,2.40
2018-07-08T21:17:22.370Z,2.50
2018-07-08T21:19:26.294Z,2.40
2018-07-08T21:21:30.148Z,2.33
2018-07-08T21:23:34.157Z,2.40
2018-07-08T21:25:38.054Z,2.77
2018-07-08T21:27:42.168Z,2.67
2018-07-08T21:29:46.035Z,2.37
2018-07-08T21:31:50.048Z,2.60
2018-07-08T21:33:54.009Z,2.80
2018-07-08T21:35:57.981Z,2.90
2018-07-08T21:38:01.911Z,2.70
2018-07-08T21:40:05.885Z,2.30
2018-07-08T21:42:09.687Z,2.40
2018-07-08T21:44:13.616Z,2.67
2018-07-08T21:46:17.710Z,2.90
2018-07-08T21:48:21.612Z,3.20
2018-07-08T21:50:25.438Z,3.07
2018-07-08T21:52:29.374Z,3.00
2018-07-08T21:54:33.161Z,3.00
2018-07-08T21:56:37.100Z,3.23
2018-07-08T21:58:40.904Z,2.90
2018-07-08T22:01:03.520Z,2.87
2018-07-08T22:03:07.674Z,2.97
2018-07-08T22:05:11.531Z,3.30
2018-07-08T22:07:20.909Z,3.40
2018-07-08T22:09:24.840Z,3.13
2018-07-08T22:11:28.601Z,2.63
2018-07-08T22:13:32.616Z,3.20
2018-07-08T22:15:36.463Z,2.87
2018-07-08T22:17:40.391Z,3.43
2018-07-08T22:19:44.185Z,3.43
2018-07-08T22:21:48.118Z,3.00
2018-07-08T22:23:51.938Z,2.80
2018-07-08T22:25:55.954Z,3.00
2018-07-08T22:27:59.962Z,3.00
2018-07-08T22:30:03.970Z,3.10
2018-07-08T22:32:07.803Z,3.00
2018-07-08T22:34:11.951Z,2.93
2018-07-08T22:36:15.711Z,3.10
2018-07-08T22:38:19.649Z,3.60
2018-07-08T22:40:23.449Z,2.67
2018-07-08T22:42:27.399Z,2.83
2018-07-08T22:44:31.238Z,2.80
2018-07-08T22:46:35.710Z,3.17
2018-07-08T22:48:39.562Z,3.00
2018-07-08T22:50:43.450Z,2.93
2018-07-08T22:52:47.272Z,3.20
2018-07-08T22:54:51.235Z,3.07
2018-07-08T22:56:55.078Z,2.80
2018-07-08T22:58:58.568Z,3.23
2018-07-08T23:01:13.431Z,3.05
2018-07-08T23:03:59.316Z,3.03
2018-07-08T23:06:03.308Z,3.47
2018-07-08T23:08:07.203Z,3.20
2018-07-08T23:10:11.885Z,3.50
2018-07-08T23:12:15.750Z,3.50
2018-07-08T23:14:19.686Z,3.50
2018-07-08T23:16:24.180Z,3.43
2018-07-08T23:18:27.683Z,3.63
2018-07-08T23:20:31.580Z,3.10
2018-07-08T23:22:46.521Z,3.20
2018-07-08T23:24:50.504Z,3.67
2018-07-08T23:26:54.402Z,3.50
2018-07-08T23:28:58.454Z,3.33
2018-07-08T23:31:02.449Z,3.80
2018-07-08T23:33:06.598Z,3.30
2018-07-08T23:35:10.389Z,3.40
2018-07-08T23:37:14.457Z,3.43
2018-07-08T23:39:18.524Z,3.67
2018-07-08T23:41:22.502Z,4.23
2018-07-08T23:43:26.258Z,3.40
2018-07-08T23:45:30.158Z,3.50
2018-07-08T23:47:34.170Z,3.90
2018-07-08T23:49:38.116Z,4.20
2018-07-08T23:51:42.136Z,4.47
2018-07-08T23:53:46.231Z,4.13
2018-07-08T23:55:50.115Z,4.33
2018-07-08T23:57:54.073Z,3.73
2018-07-08T23:59:57.833Z,4.57
